createdAt,value
2018-05-31T00:01:42.995Z,91.60
2018-05-31T00:04:10.446Z,91.30
2018-05-31T00:06:37.888Z,91.40
2018-05-31T00:09:05.319Z,91.70
2018-05-31T00:11:32.762Z,92.40
2018-05-31T00:14:00.969Z,93.50
2018-05-31T00:16:28.420Z,93.50
2018-05-31T00:18:55.854Z,93.90
2018-05-31T00:21:24.071Z,93.20
2018-05-31T00:23:51.508Z,93.20
2018-05-31T00:26:18.983Z,93.50
2018-05-31T00:28:46.411Z,94.40
2018-05-31T00:31:13.853Z,94.90
2018-05-31T00:33:42.059Z,95.60
2018-05-31T00:36:09.511Z,95.60
2018-05-31T00:38:36.952Z,96.00
2018-05-31T00:41:05.172Z,95.60
2018-05-31T00:43:32.603Z,95.60
2018-05-31T00:46:00.058Z,95.70
2018-05-31T00:48:27.494Z,95.20
2018-05-31T00:50:55.708Z,96.20
2018-05-31T00:53:23.147Z,96.20
2018-05-31T00:56:02.620Z,96.30
2018-05-31T00:58:30.055Z,95.90
2018-05-31T01:00:57.503Z,96.50
2018-05-31T01:03:24.938Z,96.40
2018-05-31T01:05:53.167Z,96.30
2018-05-31T01:08:20.598Z,96.20
2018-05-31T01:10:48.048Z,96.90
2018-05-31T01:13:15.495Z,96.60
2018-05-31T01:15:42.938Z,96.80
2018-05-31T01:18:11.139Z,95.80
2018-05-31T01:20:38.582Z,95.80
2018-05-31T01:23:06.022Z,96.10
2018-05-31T01:25:34.238Z,96.00
2018-05-31T01:28:01.681Z,95.90
2018-05-31T01:30:29.116Z,96.30
2018-05-31T01:32:57.330Z,96.10
2018-05-31T01:35:24.773Z,96.10
2018-05-31T01:37:52.224Z,96.40
2018-05-31T01:40:19.657Z,96.70
2018-05-31T01:42:47.871Z,95.50
2018-05-31T01:45:15.310Z,95.40
2018-05-31T01:47:42.766Z,95.80
2018-05-31T01:50:10.198Z,96.00
2018-05-31T01:52:38.411Z,94.90
2018-05-31T01:55:05.847Z,94.80
2018-05-31T01:57:34.059Z,95.00
2018-05-31T02:00:01.500Z,95.00
2018-05-31T02:02:28.947Z,94.90
2018-05-31T02:04:56.386Z,96.10
2018-05-31T02:07:24.599Z,96.50
2018-05-31T02:09:52.039Z,96.50
2018-05-31T02:12:19.496Z,96.40
2018-05-31T02:14:46.936Z,95.20
2018-05-31T02:17:15.149Z,96.10
2018-05-31T02:19:42.582Z,96.00
2018-05-31T02:22:10.025Z,95.60
2018-05-31T02:24:38.227Z,95.20
2018-05-31T02:27:05.683Z,95.20
2018-05-31T02:29:33.126Z,95.20
2018-05-31T02:32:00.583Z,95.30
2018-05-31T02:34:28.018Z,95.10
2018-05-31T02:36:56.226Z,95.10
2018-05-31T02:39:23.674Z,95.10
2018-05-31T02:41:51.115Z,95.50
2018-05-31T02:44:19.331Z,96.50
2018-05-31T02:46:46.775Z,96.50
2018-05-31T02:49:14.231Z,96.80
2018-05-31T02:51:41.681Z,96.50
2018-05-31T02:54:09.131Z,96.90
2018-05-31T02:56:36.570Z,96.90
2018-05-31T02:59:04.785Z,97.20
2018-05-31T03:01:32.222Z,97.20
2018-05-31T03:03:59.661Z,96.90
2018-05-31T03:06:27.873Z,97.10
2018-05-31T03:08:55.314Z,97.10
2018-05-31T03:11:22.752Z,97.20
2018-05-31T03:13:50.963Z,97.50
2018-05-31T03:16:18.398Z,97.80
2018-05-31T03:18:45.844Z,97.60
2018-05-31T03:21:14.046Z,97.60
2018-05-31T03:23:41.502Z,97.60
2018-05-31T03:26:08.944Z,97.50
2018-05-31T03:28:37.205Z,97.30
2018-05-31T03:31:05.419Z,97.60
2018-05-31T03:33:32.868Z,97.60
2018-05-31T03:36:00.306Z,97.80
2018-05-31T03:38:27.768Z,97.70
2018-05-31T03:40:55.203Z,97.70
2018-05-31T03:43:23.403Z,97.60
2018-05-31T03:45:50.852Z,97.60
2018-05-31T03:48:18.294Z,97.20
2018-05-31T03:50:46.505Z,97.50
2018-05-31T03:53:13.950Z,97.50
2018-05-31T03:55:41.400Z,97.20
2018-05-31T03:58:09.616Z,97.50
2018-05-31T04:00:37.060Z,97.50
2018-05-31T04:03:04.502Z,97.70
2018-05-31T04:05:31.945Z,97.60
2018-05-31T04:07:59.389Z,97.70
2018-05-31T04:10:27.595Z,97.70
2018-05-31T04:12:55.036Z,97.70
2018-05-31T04:15:22.481Z,97.60
2018-05-31T04:17:50.686Z,97.90
2018-05-31T04:20:18.143Z,97.80
2018-05-31T04:22:45.576Z,98.00
2018-05-31T04:25:13.024Z,98.00
2018-05-31T04:27:41.231Z,98.00
2018-05-31T04:30:08.682Z,98.00
2018-05-31T04:32:36.127Z,98.00
2018-05-31T04:35:03.570Z,98.00
2018-05-31T04:37:31.772Z,97.60
2018-05-31T04:39:59.222Z,97.60
2018-05-31T04:42:26.671Z,97.30
2018-05-31T04:44:54.887Z,97.50
2018-05-31T04:47:22.327Z,97.50
2018-05-31T04:49:49.788Z,96.70
2018-05-31T04:52:17.230Z,97.00
2018-05-31T04:54:44.661Z,96.90
2018-05-31T04:57:12.876Z,97.60
2018-05-31T04:59:40.315Z,97.60
2018-05-31T05:02:07.762Z,97.80
2018-05-31T05:04:35.964Z,97.80
2018-05-31T05:07:03.415Z,97.80
2018-05-31T05:09:30.859Z,97.20
2018-05-31T05:11:58.309Z,97.10
2018-05-31T05:14:25.758Z,97.20
2018-05-31T05:16:53.971Z,97.90
2018-05-31T05:19:21.419Z,97.90
2018-05-31T05:21:48.872Z,97.60
2018-05-31T05:24:16.310Z,97.60
2018-05-31T05:26:44.534Z,98.00
2018-05-31T05:29:11.975Z,98.00
2018-05-31T05:31:39.422Z,97.90
2018-05-31T05:34:06.870Z,97.80
2018-05-31T05:36:34.327Z,97.20
2018-05-31T05:39:01.771Z,97.40
2018-05-31T05:41:29.986Z,97.20
2018-05-31T05:43:57.431Z,97.10
2018-05-31T05:46:24.878Z,96.90
2018-05-31T05:48:52.318Z,97.10
2018-05-31T05:51:20.540Z,97.90
2018-05-31T05:53:48.743Z,97.50
2018-05-31T05:56:16.196Z,97.50
2018-05-31T05:58:43.635Z,97.60
2018-05-31T06:01:11.090Z,97.30
2018-05-31T06:03:38.535Z,97.20
2018-05-31T06:06:05.991Z,97.60
2018-05-31T06:08:33.434Z,97.30
2018-05-31T06:11:00.888Z,97.30
2018-05-31T06:13:28.326Z,97.50
2018-05-31T06:15:55.775Z,97.30
2018-05-31T06:18:23.996Z,96.50
2018-05-31T06:20:51.438Z,96.50
2018-05-31T06:23:18.891Z,97.00
2018-05-31T06:25:46.342Z,96.60
2018-05-31T06:28:13.786Z,96.70
2018-05-31T06:30:41.222Z,97.00
2018-05-31T06:33:08.675Z,97.10
2018-05-31T06:35:36.111Z,96.80
2018-05-31T06:38:03.558Z,96.60
2018-05-31T06:40:30.993Z,96.70
2018-05-31T06:42:58.478Z,96.80
2018-05-31T06:45:25.887Z,96.50
2018-05-31T06:47:53.333Z,96.00
2018-05-31T06:50:21.544Z,96.70
2018-05-31T06:52:48.994Z,96.70
2018-05-31T06:55:16.442Z,97.10
2018-05-31T06:57:44.644Z,96.00
2018-05-31T07:00:12.085Z,96.00
2018-05-31T07:02:39.534Z,95.70
2018-05-31T07:05:06.976Z,95.70
2018-05-31T07:07:35.195Z,95.10
2018-05-31T07:10:02.647Z,95.10
2018-05-31T07:12:30.083Z,94.30
2018-05-31T07:14:57.541Z,94.60
2018-05-31T07:17:24.982Z,94.70
2018-05-31T07:19:53.194Z,94.60
2018-05-31T07:22:20.686Z,94.60
2018-05-31T07:24:48.140Z,94.40
2018-05-31T07:27:15.592Z,94.70
2018-05-31T07:29:43.027Z,94.00
2018-05-31T07:32:10.465Z,93.80
2018-05-31T07:34:37.913Z,93.50
2018-05-31T07:37:05.354Z,94.40
2018-05-31T07:39:33.566Z,93.80
2018-05-31T07:42:01.001Z,93.80
2018-05-31T07:44:28.459Z,93.40
2018-05-31T07:46:55.898Z,92.50
2018-05-31T07:49:24.111Z,92.30
2018-05-31T07:51:51.543Z,92.30
2018-05-31T07:54:18.991Z,93.80
2018-05-31T07:56:47.231Z,92.40
2018-05-31T07:59:14.639Z,92.40
2018-05-31T08:01:42.074Z,92.90
2018-05-31T08:04:10.287Z,92.80
2018-05-31T08:06:37.715Z,92.80
2018-05-31T08:09:05.934Z,91.30
2018-05-31T08:11:33.367Z,91.30
2018-05-31T08:14:00.817Z,91.00
2018-05-31T08:16:28.255Z,91.50
2018-05-31T08:18:56.474Z,91.30
2018-05-31T08:21:23.915Z,91.20
2018-05-31T08:23:51.371Z,92.00
2018-05-31T08:26:18.804Z,92.60
2018-05-31T08:28:47.003Z,91.30
2018-05-31T08:31:14.449Z,91.30
2018-05-31T08:33:41.900Z,90.30
2018-05-31T08:36:10.101Z,90.50
2018-05-31T08:38:37.543Z,90.40
2018-05-31T08:41:04.988Z,90.00
2018-05-31T08:43:32.424Z,89.30
2018-05-31T08:45:59.866Z,86.10
2018-05-31T08:48:27.307Z,87.20
2018-05-31T08:50:54.747Z,88.40
2018-05-31T08:53:22.180Z,87.70
2018-05-31T08:55:49.628Z,85.20
2018-05-31T08:58:17.823Z,85.50
2018-05-31T09:00:45.279Z,85.40
2018-05-31T09:03:12.747Z,83.60
2018-05-31T09:05:40.178Z,85.60
2018-05-31T09:08:07.620Z,83.10
2018-05-31T09:10:35.829Z,84.00
2018-05-31T09:13:03.275Z,83.80
2018-05-31T09:15:30.715Z,81.10
2018-05-31T09:17:58.922Z,80.10
2018-05-31T09:20:26.359Z,80.10
2018-05-31T09:22:53.795Z,81.40
2018-05-31T09:25:22.009Z,83.30
2018-05-31T09:27:49.452Z,83.20
2018-05-31T09:30:16.896Z,83.10
2018-05-31T09:32:45.090Z,82.50
2018-05-31T09:35:12.555Z,82.50
2018-05-31T09:37:39.986Z,83.20
2018-05-31T09:40:07.427Z,84.50
2018-05-31T09:42:35.641Z,79.80
2018-05-31T09:45:03.105Z,80.00
2018-05-31T09:47:30.556Z,79.30
2018-05-31T09:49:57.994Z,76.20
2018-05-31T09:52:25.438Z,76.60
2018-05-31T09:54:53.640Z,73.70
2018-05-31T09:57:21.082Z,73.60
2018-05-31T09:59:48.518Z,74.90
2018-05-31T10:02:16.734Z,75.50
2018-05-31T10:04:44.159Z,75.50
2018-05-31T10:07:12.370Z,76.30
2018-05-31T10:09:39.807Z,76.30
2018-05-31T10:12:07.255Z,78.60
2018-05-31T10:14:35.454Z,75.80
2018-05-31T10:17:02.920Z,75.80
2018-05-31T10:19:30.340Z,75.60
2018-05-31T10:21:58.551Z,73.30
2018-05-31T10:24:25.978Z,73.30
2018-05-31T10:26:53.422Z,73.00
2018-05-31T10:29:21.623Z,73.00
2018-05-31T10:31:49.068Z,73.10
2018-05-31T10:34:16.506Z,69.30
2018-05-31T10:36:44.723Z,71.40
2018-05-31T10:39:12.152Z,71.30
2018-05-31T10:41:40.355Z,70.50
2018-05-31T10:44:07.802Z,70.50
2018-05-31T10:46:35.250Z,71.50
2018-05-31T10:49:03.751Z,73.30
2018-05-31T10:51:31.178Z,73.30
2018-05-31T10:53:59.385Z,73.70
2018-05-31T10:56:26.818Z,73.70
2018-05-31T10:58:54.268Z,74.30
2018-05-31T11:01:22.470Z,72.60
2018-05-31T11:03:49.942Z,72.50
2018-05-31T11:06:17.382Z,69.20
2018-05-31T11:08:44.818Z,69.90
2018-05-31T11:11:12.267Z,70.60
2018-05-31T11:13:40.471Z,65.60
2018-05-31T11:16:07.907Z,65.50
2018-05-31T11:18:36.120Z,67.40
2018-05-31T11:21:03.557Z,67.30
2018-05-31T11:23:31.002Z,65.10
2018-05-31T11:25:58.431Z,64.00
2018-05-31T11:28:25.874Z,63.10
2018-05-31T11:30:53.312Z,62.60
2018-05-31T11:33:20.750Z,65.30
2018-05-31T11:35:48.186Z,63.40
2018-05-31T11:38:15.633Z,61.90
2018-05-31T11:40:43.840Z,60.20
2018-05-31T11:43:11.297Z,60.10
2018-05-31T11:45:38.726Z,63.60
2018-05-31T11:48:06.944Z,63.40
2018-05-31T11:50:34.377Z,63.30
2018-05-31T11:53:01.811Z,62.50
2018-05-31T11:55:30.026Z,63.50
2018-05-31T11:57:57.458Z,63.40
2018-05-31T12:00:24.934Z,65.40
2018-05-31T12:02:53.106Z,62.80
2018-05-31T12:05:20.554Z,62.70
2018-05-31T12:07:47.989Z,62.60
2018-05-31T12:10:16.215Z,59.10
2018-05-31T12:12:43.647Z,59.10
2018-05-31T12:15:11.095Z,65.40
2018-05-31T12:17:38.573Z,61.00
2018-05-31T12:20:06.757Z,59.30
2018-05-31T12:22:35.089Z,59.30
2018-05-31T12:25:03.296Z,64.50
2018-05-31T12:27:30.744Z,64.60
2018-05-31T12:29:58.186Z,62.00
2018-05-31T12:32:25.618Z,62.50
2018-05-31T12:34:53.840Z,62.70
2018-05-31T12:37:21.276Z,62.80
2018-05-31T12:39:48.722Z,63.50
2018-05-31T12:42:16.928Z,67.10
2018-05-31T12:44:44.383Z,67.00
2018-05-31T12:47:11.829Z,65.40
2018-05-31T12:49:39.267Z,65.00
2018-05-31T12:52:07.470Z,68.10
2018-05-31T12:54:34.918Z,68.10
2018-05-31T12:57:02.358Z,66.60
2018-05-31T12:59:30.578Z,68.70
2018-05-31T13:01:58.011Z,68.70
2018-05-31T13:04:25.508Z,65.30
2018-05-31T13:06:52.906Z,67.80
2018-05-31T13:09:21.107Z,67.90
2018-05-31T13:11:48.551Z,67.90
2018-05-31T13:14:15.997Z,68.10
2018-05-31T13:16:44.206Z,69.10
2018-05-31T13:19:11.643Z,69.00
2018-05-31T13:21:39.098Z,72.40
2018-05-31T13:24:06.534Z,69.50
2018-05-31T13:26:34.751Z,68.80
2018-05-31T13:29:02.178Z,68.70
2018-05-31T13:31:29.635Z,69.30
2018-05-31T13:33:57.071Z,70.00
2018-05-31T13:36:25.280Z,68.70
2018-05-31T13:38:52.715Z,68.40
2018-05-31T13:41:20.926Z,68.20
2018-05-31T13:43:48.372Z,68.10
2018-05-31T13:46:15.810Z,65.90
2018-05-31T13:48:43.247Z,66.60
2018-05-31T13:51:10.690Z,66.60
2018-05-31T13:53:38.127Z,64.60
2018-05-31T13:56:05.576Z,63.50
2018-05-31T13:58:33.010Z,63.70
2018-05-31T14:01:00.455Z,64.80
2018-05-31T14:03:27.890Z,64.90
2018-05-31T14:05:56.090Z,65.10
2018-05-31T14:08:23.534Z,65.10
2018-05-31T14:10:51.730Z,65.90
2018-05-31T14:13:19.174Z,65.90
2018-05-31T14:15:46.609Z,65.80
2018-05-31T14:18:14.818Z,65.10
2018-05-31T14:20:42.254Z,65.00
2018-05-31T14:23:10.476Z,63.10
2018-05-31T14:25:37.912Z,63.00
2018-05-31T14:28:05.359Z,64.00
2018-05-31T14:30:32.803Z,63.90
2018-05-31T14:33:01.018Z,66.10
2018-05-31T14:35:28.451Z,66.10
2018-05-31T14:37:55.902Z,64.50
2018-05-31T14:40:23.345Z,64.00
2018-05-31T14:42:51.551Z,61.70
2018-05-31T14:45:18.991Z,60.90
2018-05-31T14:47:46.431Z,60.20
2018-05-31T14:50:14.636Z,62.20
2018-05-31T14:52:42.084Z,62.20
2018-05-31T14:55:09.514Z,63.10
2018-05-31T14:57:37.730Z,65.00
2018-05-31T15:00:05.179Z,65.00
2018-05-31T15:02:32.626Z,66.10
2018-05-31T15:05:00.064Z,64.50
2018-05-31T15:07:28.274Z,63.90
2018-05-31T15:09:55.714Z,63.80
2018-05-31T15:12:23.178Z,63.70
2018-05-31T15:14:50.615Z,64.80
2018-05-31T15:17:18.812Z,64.40
2018-05-31T15:19:46.255Z,64.40
2018-05-31T15:22:13.940Z,63.00
2018-05-31T15:24:41.376Z,62.40
2018-05-31T15:27:08.816Z,63.20
2018-05-31T15:29:37.024Z,63.80
2018-05-31T15:32:04.459Z,63.70
2018-05-31T15:34:32.673Z,65.40
2018-05-31T15:37:00.110Z,65.30
2018-05-31T15:39:27.557Z,64.60
2018-05-31T15:41:54.993Z,63.80
2018-05-31T15:44:22.441Z,65.10
2018-05-31T15:46:49.870Z,65.00
2018-05-31T15:49:17.319Z,64.60
2018-05-31T15:51:44.755Z,64.60
2018-05-31T15:54:12.530Z,64.30
2018-05-31T15:56:39.969Z,64.50
2018-05-31T15:59:07.415Z,63.10
2018-05-31T16:01:35.623Z,63.40
2018-05-31T16:04:03.071Z,63.30
2018-05-31T16:06:30.507Z,63.50
2018-05-31T16:08:57.954Z,62.90
2018-05-31T16:11:26.167Z,63.90
2018-05-31T16:13:53.616Z,63.80
2018-05-31T16:16:21.058Z,63.40
2018-05-31T16:18:48.494Z,63.10
2018-05-31T16:21:16.705Z,62.50
2018-05-31T16:23:44.147Z,62.40
2018-05-31T16:26:11.574Z,62.80
2018-05-31T16:28:39.795Z,63.70
2018-05-31T16:31:07.233Z,64.40
2018-05-31T16:33:34.698Z,65.50
2018-05-31T16:36:02.132Z,66.40
2018-05-31T16:38:30.338Z,64.20
2018-05-31T16:40:57.791Z,64.20
2018-05-31T16:43:25.219Z,66.10
2018-05-31T16:45:53.434Z,65.60
2018-05-31T16:48:20.885Z,65.60
2018-05-31T16:50:48.331Z,66.30
2018-05-31T16:53:15.769Z,66.00
2018-05-31T16:55:43.980Z,66.00
2018-05-31T16:58:11.414Z,66.00
2018-05-31T17:00:38.859Z,66.80
2018-05-31T17:03:07.062Z,66.90
2018-05-31T17:05:34.518Z,66.80
2018-05-31T17:08:01.947Z,67.60
2018-05-31T17:10:30.169Z,68.10
2018-05-31T17:12:57.594Z,68.10
2018-05-31T17:15:25.041Z,67.70
2018-05-31T17:17:53.251Z,69.10
2018-05-31T17:20:20.702Z,69.00
2018-05-31T17:22:48.136Z,69.20
2018-05-31T17:25:15.578Z,69.90
2018-05-31T17:27:43.788Z,71.40
2018-05-31T17:30:11.235Z,71.30
2018-05-31T17:32:38.674Z,72.60
2018-05-31T17:35:06.894Z,72.10
2018-05-31T17:37:34.335Z,72.00
2018-05-31T17:40:01.783Z,72.00
2018-05-31T17:42:29.216Z,72.90
2018-05-31T17:44:57.431Z,74.50
2018-05-31T17:47:24.866Z,74.50
2018-05-31T17:49:52.310Z,71.60
2018-05-31T17:52:20.513Z,70.20
2018-05-31T17:54:47.967Z,70.10
2018-05-31T17:57:15.403Z,69.90
2018-05-31T17:59:42.847Z,70.60
2018-05-31T18:02:11.041Z,70.20
2018-05-31T18:04:38.502Z,70.00
2018-05-31T18:07:05.933Z,69.70
2018-05-31T18:09:34.145Z,71.50
2018-05-31T18:12:01.592Z,71.50
2018-05-31T18:14:29.077Z,72.50
2018-05-31T18:16:57.238Z,72.80
2018-05-31T18:19:24.667Z,72.70
2018-05-31T18:21:52.887Z,74.80
2018-05-31T18:24:20.318Z,74.80
2018-05-31T18:26:47.764Z,75.40
2018-05-31T18:29:15.197Z,75.60
2018-05-31T18:31:43.414Z,77.50
2018-05-31T18:34:10.847Z,77.50
2018-05-31T18:36:38.290Z,78.20
2018-05-31T18:39:06.486Z,79.00
2018-05-31T18:41:33.934Z,78.90
2018-05-31T18:44:01.370Z,79.50
2018-05-31T18:46:28.806Z,80.00
2018-05-31T18:48:56.246Z,80.50
2018-05-31T18:51:23.704Z,81.30
2018-05-31T18:53:51.139Z,82.30
2018-05-31T18:56:18.584Z,83.60
2018-05-31T18:58:46.016Z,85.10
2018-05-31T19:01:13.460Z,86.40
2018-05-31T19:03:40.892Z,87.80
2018-05-31T19:06:08.344Z,88.90
2018-05-31T19:08:35.775Z,88.30
2018-05-31T19:11:03.219Z,88.80
2018-05-31T19:13:37.133Z,90.80
2018-05-31T19:16:04.590Z,90.80
2018-05-31T19:18:37.718Z,91.70
2018-05-31T19:21:05.174Z,92.20
2018-05-31T19:23:32.602Z,92.80
2018-05-31T19:26:00.052Z,93.50
2018-05-31T19:28:27.499Z,93.90
2018-05-31T19:31:01.345Z,94.40
2018-05-31T19:33:28.792Z,94.30
2018-05-31T19:36:01.780Z,94.20
2018-05-31T19:38:29.210Z,94.20
2018-05-31T19:40:57.428Z,94.60
2018-05-31T19:43:30.500Z,94.50
2018-05-31T19:45:57.942Z,95.00
2018-05-31T19:48:25.374Z,95.00
2018-05-31T19:50:53.588Z,95.40
2018-05-31T19:53:26.639Z,95.30
2018-05-31T19:55:54.856Z,94.90
2018-05-31T19:58:28.047Z,94.90
2018-05-31T20:01:01.198Z,95.10
2018-05-31T20:03:36.752Z,94.90
2018-05-31T20:06:04.971Z,95.30
2018-05-31T20:08:32.411Z,95.30
2018-05-31T20:10:59.856Z,94.50
2018-05-31T20:13:27.299Z,94.90
2018-05-31T20:15:55.521Z,95.20
2018-05-31T20:18:22.978Z,95.20
2018-05-31T20:20:50.433Z,95.30
2018-05-31T20:23:17.867Z,95.40
2018-05-31T20:25:45.310Z,95.10
2018-05-31T20:28:13.527Z,95.80
2018-05-31T20:30:41.000Z,95.70
2018-05-31T20:33:08.420Z,95.80
2018-05-31T20:35:35.861Z,95.80
2018-05-31T20:38:03.302Z,96.10
2018-05-31T20:40:31.511Z,96.90
2018-05-31T20:42:58.950Z,96.90
2018-05-31T20:45:26.387Z,97.00
2018-05-31T20:47:54.595Z,96.00
2018-05-31T20:50:22.044Z,96.00
2018-05-31T20:52:49.492Z,96.00
2018-05-31T20:55:16.928Z,96.30
2018-05-31T20:57:45.139Z,97.20
2018-05-31T21:00:12.580Z,97.40
2018-05-31T21:02:40.033Z,97.70
2018-05-31T21:05:08.235Z,96.00
2018-05-31T21:07:35.671Z,96.00
2018-05-31T21:10:03.108Z,96.50
2018-05-31T21:12:30.552Z,96.90
2018-05-31T21:14:57.990Z,97.40
2018-05-31T21:17:25.434Z,97.70
2018-05-31T21:19:52.876Z,97.70
2018-05-31T21:22:20.303Z,97.80
2018-05-31T21:24:48.510Z,98.10
2018-05-31T21:27:15.942Z,98.10
2018-05-31T21:29:43.394Z,98.60
2018-05-31T21:32:11.599Z,98.80
2018-05-31T21:34:39.048Z,98.70
2018-05-31T21:37:06.929Z,98.80
2018-05-31T21:39:34.379Z,99.00
2018-05-31T21:42:01.817Z,98.90
2018-05-31T21:44:29.258Z,98.50
2018-05-31T21:46:57.467Z,97.50
2018-05-31T21:49:24.918Z,97.50
2018-05-31T21:51:52.351Z,97.50
2018-05-31T21:54:20.561Z,98.20
2018-05-31T21:56:48.002Z,98.20
2018-05-31T21:59:15.448Z,98.10
2018-05-31T22:01:42.883Z,98.30
2018-05-31T22:04:10.330Z,98.70
2018-05-31T22:06:37.781Z,98.40
2018-05-31T22:09:05.235Z,98.00
2018-05-31T22:11:32.675Z,95.60
2018-05-31T22:14:00.124Z,95.60
2018-05-31T22:16:27.564Z,96.60
2018-05-31T22:18:55.008Z,97.20
2018-05-31T22:21:22.456Z,97.00
2018-05-31T22:23:50.659Z,94.20
2018-05-31T22:26:18.103Z,94.20
2018-05-31T22:28:45.550Z,94.20
2018-05-31T22:31:13.754Z,94.30
2018-05-31T22:33:41.198Z,94.20
2018-05-31T22:36:08.643Z,94.40
2018-05-31T22:38:36.848Z,94.20
2018-05-31T22:41:04.302Z,94.20
2018-05-31T22:43:31.751Z,94.00
2018-05-31T22:45:59.249Z,93.90
2018-05-31T22:48:26.631Z,94.10
2018-05-31T22:50:54.842Z,94.20
2018-05-31T22:53:22.279Z,94.20
2018-05-31T22:55:49.726Z,94.80
2018-05-31T22:58:17.932Z,94.10
2018-05-31T23:00:45.383Z,94.10
2018-05-31T23:03:12.819Z,94.70
2018-05-31T23:05:40.266Z,95.50
2018-05-31T23:08:08.476Z,97.30
2018-05-31T23:10:35.921Z,97.30
2018-05-31T23:13:03.372Z,97.60
2018-05-31T23:15:30.820Z,97.90
2018-05-31T23:17:59.019Z,98.40
2018-05-31T23:20:26.475Z,98.40
2018-05-31T23:22:53.921Z,98.50
2018-05-31T23:25:21.359Z,98.20
2018-05-31T23:27:49.559Z,97.40
2018-05-31T23:30:17.012Z,97.30
2018-05-31T23:32:44.456Z,97.30
2018-05-31T23:35:12.668Z,98.10
2018-05-31T23:37:40.113Z,98.00
2018-05-31T23:40:07.546Z,98.30
2018-05-31T23:42:34.982Z,98.10
2018-05-31T23:45:02.429Z,98.20
2018-05-31T23:47:29.876Z,98.60
2018-05-31T23:49:57.310Z,97.80
2018-05-31T23:52:24.758Z,97.70
2018-05-31T23:54:52.194Z,97.90
2018-05-31T23:57:19.640Z,98.00
2018-05-31T23:59:47.845Z,97.50
